Time,TemperatureF,DewpointF,PressureIn,WindDirection,WindDirectionDegrees,WindSpeedMPH,WindSpeedGustMPH,Humidity,HourlyPrecipIn,Conditions,Clouds,dailyrainin,SoftwareType,DateUTC
2013-08-16 00:05:00,79.3,52.0,29.79,ESE,113,0.0,0.0,39,0.00,,,0.00,weatherlink.com 1.10,2013-08-16 05:05:00,
2013-08-16 00:20:00,78.8,52.0,29.79,ESE,113,0.0,0.0,40,0.00,,,0.00,weatherlink.com 1.10,2013-08-16 05:20:00,
2013-08-16 00:35:00,78.6,52.0,29.79,ESE,113,0.0,1.0,40,0.00,,,0.00,weatherlink.com 1.10,2013-08-16 05:35:00,
2013-08-16 00:50:00,79.1,51.0,29.79,ESE,119,0.0,2.0,38,0.00,,,0.00,weatherlink.com 1.10,2013-08-16 05:50:00,
2013-08-16 01:05:00,78.6,52.0,29.80,ESE,117,0.0,1.0,39,0.00,,,0.00,weatherlink.com 1.10,2013-08-16 06:05:00,
2013-08-16 01:20:00,77.7,51.0,29.80,ESE,117,0.0,1.0,40,0.00,,,0.00,weatherlink.com 1.10,2013-08-16 06:20:00,
2013-08-16 01:35:00,77.2,52.0,29.80,ESE,117,0.0,0.0,41,0.00,,,0.00,weatherlink.com 1.10,2013-08-16 06:35:00,
2013-08-16 01:50:00,77.6,51.0,29.79,ESE,117,0.0,1.0,40,0.00,,,0.00,weatherlink.com 1.10,2013-08-16 06:50:00,
2013-08-16 02:05:00,76.7,52.0,29.79,ESE,117,0.0,0.0,42,0.00,,,0.00,weatherlink.com 1.10,2013-08-16 07:05:00,
2013-08-16 02:20:00,76.9,51.0,29.79,ESE,117,0.0,1.0,41,0.00,,,0.00,weatherlink.com 1.10,2013-08-16 07:20:00,
2013-08-16 02:35:00,76.9,51.0,29.79,ESE,118,0.0,2.0,41,0.00,,,0.00,weatherlink.com 1.10,2013-08-16 07:35:00,
2013-08-16 02:50:00,76.8,52.0,29.79,ESE,115,0.0,2.0,42,0.00,,,0.00,weatherlink.com 1.10,2013-08-16 07:50:00,
2013-08-16 03:05:00,74.7,52.0,29.79,North,10,0.0,3.0,45,0.00,,,0.00,weatherlink.com 1.10,2013-08-16 08:05:00,
2013-08-16 03:20:00,75.5,52.0,29.79,North,11,0.0,1.0,44,0.00,,,0.00,weatherlink.com 1.10,2013-08-16 08:20:00,
2013-08-16 03:35:00,75.2,52.0,29.78,North,10,0.0,0.0,44,0.00,,,0.00,weatherlink.com 1.10,2013-08-16 08:35:00,
2013-08-16 03:50:00,75.4,52.0,29.78,North,11,0.0,0.0,44,0.00,,,0.00,weatherlink.com 1.10,2013-08-16 08:50:00,
2013-08-16 04:05:00,76.1,52.0,29.78,North,10,0.0,0.0,43,0.00,,,0.00,weatherlink.com 1.10,2013-08-16 09:05:00,
2013-08-16 04:20:00,74.1,51.0,29.78,North,10,0.0,0.0,45,0.00,,,0.00,weatherlink.com 1.10,2013-08-16 09:20:00,
2013-08-16 04:36:00,73.2,52.0,29.78,North,9,0.0,3.0,47,0.00,,,0.00,weatherlink.com 1.10,2013-08-16 09:36:00,
2013-08-16 04:51:00,73.4,51.0,29.79,North,5,0.0,1.0,46,0.00,,,0.00,weatherlink.com 1.10,2013-08-16 09:51:00,
2013-08-16 05:06:00,72.2,52.0,29.78,North,5,0.0,0.0,49,0.00,,,0.00,weatherlink.com 1.10,2013-08-16 10:06:00,
2013-08-16 05:21:00,72.0,52.0,29.77,North,5,0.0,1.0,50,0.00,,,0.00,weatherlink.com 1.10,2013-08-16 10:21:00,
2013-08-16 05:36:00,72.2,51.0,29.77,North,5,0.0,1.0,48,0.00,,,0.00,weatherlink.com 1.10,2013-08-16 10:36:00,
2013-08-16 05:51:00,72.7,51.0,29.77,North,5,0.0,1.0,47,0.00,,,0.00,weatherlink.com 1.10,2013-08-16 10:51:00,
2013-08-16 06:06:00,72.4,51.0,29.77,North,5,0.0,1.0,47,0.00,,,0.00,weatherlink.com 1.10,2013-08-16 11:06:00,
2013-08-16 06:21:00,69.2,51.0,29.78,North,5,0.0,1.0,53,0.00,,,0.00,weatherlink.com 1.10,2013-08-16 11:21:00,
2013-08-16 06:36:00,71.4,51.0,29.78,NNE,31,0.0,2.0,48,0.00,,,0.00,weatherlink.com 1.10,2013-08-16 11:36:00,
2013-08-16 06:51:00,71.5,50.0,29.78,NNE,31,0.0,1.0,47,0.00,,,0.00,weatherlink.com 1.10,2013-08-16 11:51:00,
2013-08-16 07:06:00,69.5,50.0,29.78,NNW,342,0.0,0.0,51,0.00,,,0.00,weatherlink.com 1.10,2013-08-16 12:06:00,
2013-08-16 07:21:00,70.7,51.0,29.78,NNW,342,0.0,0.0,50,0.00,,,0.00,weatherlink.com 1.10,2013-08-16 12:21:00,
2013-08-16 07:36:00,67.4,50.0,29.79,NNW,342,0.0,0.0,54,0.00,,,0.00,weatherlink.com 1.10,2013-08-16 12:36:00,
2013-08-16 07:51:00,69.4,50.0,29.79,North,355,0.0,2.0,51,0.00,,,0.00,weatherlink.com 1.10,2013-08-16 12:51:00,
2013-08-16 08:06:00,70.2,50.0,29.79,NNE,32,0.0,3.0,49,0.00,,,0.00,weatherlink.com 1.10,2013-08-16 13:06:00,
2013-08-16 08:21:00,71.2,50.0,29.80,NE,35,0.0,0.0,48,0.00,,,0.00,weatherlink.com 1.10,2013-08-16 13:21:00,
2013-08-16 08:36:00,73.4,51.0,29.80,NE,35,0.0,1.0,46,0.00,,,0.00,weatherlink.com 1.10,2013-08-16 13:36:00,
2013-08-16 08:51:00,75.4,51.0,29.81,ENE,57,0.0,2.0,43,0.00,,,0.00,weatherlink.com 1.10,2013-08-16 13:51:00,
2013-08-16 09:06:00,77.2,52.0,29.81,ENE,57,0.0,0.0,41,0.00,,,0.00,weatherlink.com 1.10,2013-08-16 14:06:00,
2013-08-16 09:21:00,78.6,51.0,29.81,ENE,58,0.0,1.0,38,0.00,,,0.00,weatherlink.com 1.10,2013-08-16 14:21:00,
2013-08-16 09:36:00,80.2,52.0,29.81,NW,305,0.0,2.0,37,0.00,,,0.00,weatherlink.com 1.10,2013-08-16 14:36:00,
2013-08-16 09:51:00,81.4,52.0,29.81,WNW,302,0.0,1.0,36,0.00,,,0.00,weatherlink.com 1.10,2013-08-16 14:51:00,
2013-08-16 10:06:00,82.3,52.0,29.81,West,267,1.0,3.0,35,0.00,,,0.00,weatherlink.com 1.10,2013-08-16 15:06:00,
2013-08-16 10:21:00,83.5,53.0,29.81,West,267,0.0,4.0,35,0.00,,,0.00,weatherlink.com 1.10,2013-08-16 15:21:00,
2013-08-16 10:36:00,86.2,51.0,29.81,West,277,0.0,2.0,30,0.00,,,0.00,weatherlink.com 1.10,2013-08-16 15:36:00,
2013-08-16 10:51:00,85.8,52.0,29.82,SW,234,0.0,4.0,31,0.00,,,0.00,weatherlink.com 1.10,2013-08-16 15:51:00,
2013-08-16 11:06:00,87.3,51.0,29.82,WSW,238,0.0,3.0,29,0.00,,,0.00,weatherlink.com 1.10,2013-08-16 16:06:00,
2013-08-16 11:21:00,87.7,52.0,29.82,WNW,300,0.0,6.0,29,0.00,,,0.00,weatherlink.com 1.10,2013-08-16 16:21:00,
2013-08-16 11:37:00,90.0,53.0,29.82,North,350,1.0,5.0,28,0.00,,,0.00,weatherlink.com 1.10,2013-08-16 16:37:00,
2013-08-16 11:52:00,90.1,52.0,29.82,NW,313,1.0,6.0,27,0.00,,,0.00,weatherlink.com 1.10,2013-08-16 16:52:00,
2013-08-16 12:07:00,91.4,51.0,29.82,ENE,61,0.0,7.0,25,0.00,,,0.00,weatherlink.com 1.10,2013-08-16 17:07:00,
2013-08-16 12:22:00,92.0,51.0,29.81,NW,315,1.0,8.0,25,0.00,,,0.00,weatherlink.com 1.10,2013-08-16 17:22:00,
2013-08-16 12:37:00,90.6,51.0,29.80,NW,313,5.0,8.0,26,0.00,,,0.00,weatherlink.com 1.10,2013-08-16 17:37:00,
2013-08-16 12:52:00,93.2,49.0,29.80,NNE,24,2.0,9.0,22,0.00,,,0.00,weatherlink.com 1.10,2013-08-16 17:52:00,
2013-08-16 13:07:00,91.4,48.0,29.80,WNW,292,4.0,7.0,22,0.00,,,0.00,weatherlink.com 1.10,2013-08-16 18:07:00,
2013-08-16 13:22:00,95.3,51.0,29.79,NNW,327,2.0,11.0,22,0.00,,,0.00,weatherlink.com 1.10,2013-08-16 18:22:00,
2013-08-16 13:37:00,95.2,45.0,29.78,West,275,0.0,11.0,18,0.00,,,0.00,weatherlink.com 1.10,2013-08-16 18:37:00,
2013-08-16 13:52:00,91.0,48.0,29.78,NNW,331,1.0,6.0,23,0.00,,,0.00,weatherlink.com 1.10,2013-08-16 18:52:00,
2013-08-16 14:07:00,93.1,49.0,29.77,WSW,242,1.0,6.0,22,0.00,,,0.00,weatherlink.com 1.10,2013-08-16 19:07:00,
2013-08-16 14:22:00,95.1,47.0,29.77,ESE,121,10.0,11.0,19,0.00,,,0.00,weatherlink.com 1.10,2013-08-16 19:22:00,
2013-08-16 14:37:00,92.6,43.0,29.77,ENE,67,1.0,8.0,18,0.00,,,0.00,weatherlink.com 1.10,2013-08-16 19:37:00,
2013-08-16 14:52:00,90.4,44.0,29.76,SE,146,3.0,6.0,20,0.00,,,0.00,weatherlink.com 1.10,2013-08-16 19:52:00,
2013-08-16 15:07:00,91.4,45.0,29.76,ESE,120,0.0,6.0,20,0.00,,,0.00,weatherlink.com 1.10,2013-08-16 20:07:00,
2013-08-16 15:22:00,92.8,42.0,29.76,ESE,113,1.0,12.0,17,0.00,,,0.00,weatherlink.com 1.10,2013-08-16 20:22:00,
2013-08-16 15:37:00,96.0,41.0,29.75,SSW,211,0.0,6.0,15,0.00,,,0.00,weatherlink.com 1.10,2013-08-16 20:37:00,
2013-08-16 15:52:00,96.4,42.0,29.76,NW,306,1.0,6.0,15,0.00,,,0.00,weatherlink.com 1.10,2013-08-16 20:52:00,
2013-08-16 16:07:00,93.8,41.0,29.75,ENE,78,0.0,6.0,16,0.00,,,0.00,weatherlink.com 1.10,2013-08-16 21:07:00,
2013-08-16 16:22:00,96.1,41.0,29.74,WNW,284,2.0,7.0,15,0.00,,,0.00,weatherlink.com 1.10,2013-08-16 21:22:00,
2013-08-16 16:37:00,95.4,43.0,29.75,ESE,113,2.0,10.0,16,0.00,,,0.00,weatherlink.com 1.10,2013-08-16 21:37:00,
2013-08-16 16:52:00,93.1,45.0,29.74,NW,315,0.0,7.0,19,0.00,,,0.00,weatherlink.com 1.10,2013-08-16 21:52:00,
2013-08-16 17:07:00,94.0,44.0,29.74,ESE,123,7.0,7.0,18,0.00,,,0.00,weatherlink.com 1.10,2013-08-16 22:07:00,
2013-08-16 17:22:00,93.2,51.0,29.74,ESE,121,4.0,14.0,24,0.00,,,0.00,weatherlink.com 1.10,2013-08-16 22:22:00,
2013-08-16 17:37:00,89.9,53.0,29.73,ESE,112,9.0,17.0,28,0.00,,,0.00,weatherlink.com 1.10,2013-08-16 22:37:00,
2013-08-16 17:52:00,88.9,54.0,29.73,East,88,11.0,16.0,30,0.00,,,0.00,weatherlink.com 1.10,2013-08-16 22:52:00,
2013-08-16 18:07:00,86.0,60.0,29.74,SE,134,6.0,14.0,42,0.00,,,0.00,weatherlink.com 1.10,2013-08-16 23:07:00,
2013-08-16 18:22:00,83.9,55.0,29.74,East,99,2.0,7.0,37,0.00,,,0.00,weatherlink.com 1.10,2013-08-16 23:22:00,
2013-08-16 18:37:00,83.8,53.0,29.74,WSW,257,8.0,12.0,34,0.00,,,0.00,weatherlink.com 1.10,2013-08-16 23:37:00,
2013-08-16 18:52:00,83.3,54.0,29.74,WSW,250,4.0,11.0,37,0.00,,,0.00,weatherlink.com 1.10,2013-08-16 23:52:00,
2013-08-16 19:07:00,82.2,54.0,29.74,West,265,1.0,9.0,38,0.00,,,0.00,weatherlink.com 1.10,2013-08-17 00:07:00,
2013-08-16 19:22:00,81.7,56.0,29.74,West,259,4.0,10.0,41,0.00,,,0.00,weatherlink.com 1.10,2013-08-17 00:22:00,
2013-08-16 19:37:00,81.1,55.0,29.75,WSW,254,0.0,4.0,41,0.00,,,0.00,weatherlink.com 1.10,2013-08-17 00:37:00,
2013-08-16 19:52:00,81.1,55.0,29.75,SW,234,0.0,2.0,41,0.00,,,0.00,weatherlink.com 1.10,2013-08-17 00:52:00,
2013-08-16 20:07:00,80.7,55.0,29.75,WSW,246,0.0,3.0,41,0.00,,,0.00,weatherlink.com 1.10,2013-08-17 01:07:00,
2013-08-16 20:22:00,79.6,56.0,29.76,WSW,246,0.0,3.0,44,0.00,,,0.00,weatherlink.com 1.10,2013-08-17 01:22:00,
2013-08-16 20:37:00,80.0,55.0,29.76,WSW,246,0.0,1.0,42,0.00,,,0.00,weatherlink.com 1.10,2013-08-17 01:37:00,
2013-08-16 20:52:00,78.7,56.0,29.77,WSW,246,0.0,0.0,46,0.00,,,0.00,weatherlink.com 1.10,2013-08-17 01:52:00,
2013-08-16 21:07:00,79.1,56.0,29.77,WSW,246,0.0,0.0,45,0.00,,,0.00,weatherlink.com 1.10,2013-08-17 02:07:00,
2013-08-16 21:22:00,78.8,55.0,29.77,WSW,246,1.0,1.0,44,0.00,,,0.00,weatherlink.com 1.10,2013-08-17 02:22:00,
2013-08-16 21:37:00,78.6,54.0,29.78,SW,219,1.0,2.0,43,0.00,,,0.00,weatherlink.com 1.10,2013-08-17 02:37:00,
2013-08-16 21:52:00,77.6,55.0,29.78,SSW,202,0.0,2.0,46,0.00,,,0.00,weatherlink.com 1.10,2013-08-17 02:52:00,
2013-08-16 22:07:00,78.1,56.0,29.79,SSW,201,0.0,2.0,46,0.00,,,0.00,weatherlink.com 1.10,2013-08-17 03:07:00,
2013-08-16 22:22:00,76.9,55.0,29.80,SSW,201,0.0,0.0,47,0.00,,,0.00,weatherlink.com 1.10,2013-08-17 03:22:00,
2013-08-16 22:37:00,76.7,55.0,29.80,SSW,201,0.0,0.0,48,0.00,,,0.00,weatherlink.com 1.10,2013-08-17 03:37:00,
2013-08-16 22:52:00,77.2,55.0,29.81,SSW,201,0.0,2.0,47,0.00,,,0.00,weatherlink.com 1.10,2013-08-17 03:52:00,
2013-08-16 23:07:00,76.7,55.0,29.80,SSW,201,0.0,1.0,48,0.00,,,0.00,weatherlink.com 1.10,2013-08-17 04:07:00,
2013-08-16 23:22:00,77.1,55.0,29.80,ESE,107,0.0,5.0,47,0.00,,,0.00,weatherlink.com 1.10,2013-08-17 04:22:00,
2013-08-16 23:37:00,75.0,55.0,29.81,ESE,107,1.0,1.0,50,0.00,,,0.00,weatherlink.com 1.10,2013-08-17 04:37:00,
2013-08-16 23:52:00,75.7,55.0,29.81,ESE,107,0.0,1.0,49,0.00,,,0.00,weatherlink.com 1.10,2013-08-17 04:52:00,